GCY weather

Greeneville-Greene County Municipal Airport
Greeneville, Tennessee, United States

Public forecast

Using degrees Fahrenheit for public forecast. Weather courtesy of forecast.io.

METAR (pilot weather report)

Closest report is Tri-Cities Regional TN/VA Airport, 26.0 nm (48.1 km) NE. Retrieved 2019/07/20 13:53 UTC (58 minutes ago):

KTRI 201353Z 22003KT 10SM FEW035 27/22 A3013 RMK AO2 SLP173 T02670217

TAF (pilot weather forecast)

Closest forecast is Tri-Cities Regional TN/VA Airport, 26.0 nm (48.1 km) NE. Retrieved 2019/07/20 12:24 UTC (2 hours ago):

TAF KTRI 201122Z 2012/2112 00000KT 1 1/2SM BR BKN010 TEMPO 2012/2013 1/4SM FG BKN002 FM201300 00000KT 2SM BR FEW035 FM201400 VRB04KT P6SM SCT040 FM210100 00000KT P6SM BKN040 FM211000 00000KT 4SM BR BKN030